Time;durP1;ratioP1;P1;durP2;ratioP2;P2;SDS_P1;SDS_P2;PMS_P1;PMS_P2;Temp;Humidity;BMP_temperature;BMP_pressure;BME280_temperature;BME280_humidity;BME280_pressure;Samples;Min_cycle;Max_cycle;Signal;HPM_P1;HPM_P2
2023/06/18 00:00:36;;;;;;;11.05;4.82;;;23.00;54.90;;;;;;5073005;28;20437;-68
2023/06/18 00:03:01;;;;;;;7.53;4.85;;;23.00;54.70;;;;;;5088493;28;20107;-68
2023/06/18 00:05:27;;;;;;;5.82;4.40;;;23.00;54.70;;;;;;5086594;28;20394;-68
2023/06/18 00:07:53;;;;;;;5.28;4.00;;;23.00;54.50;;;;;;5084937;28;20028;-68
2023/06/18 00:10:18;;;;;;;5.82;4.22;;;23.00;54.30;;;;;;5097719;28;20032;-68
2023/06/18 00:12:44;;;;;;;5.25;4.22;;;23.00;54.10;;;;;;5094182;28;20028;-68
2023/06/18 00:15:10;;;;;;;6.00;4.20;;;23.00;54.10;;;;;;5088103;28;20035;-68
2023/06/18 00:17:36;;;;;;;5.38;4.18;;;23.00;53.80;;;;;;5074807;28;20036;-68
2023/06/18 00:20:01;;;;;;;6.28;4.03;;;23.00;53.60;;;;;;5071033;28;20382;-69
2023/06/18 00:22:27;;;;;;;6.35;4.22;;;23.00;53.50;;;;;;5083864;28;20109;-69
2023/06/18 00:24:54;;;;;;;5.72;4.40;;;23.00;53.30;;;;;;5079412;28;20463;-68
2023/06/18 00:27:20;;;;;;;5.53;3.80;;;23.00;53.30;;;;;;5077253;28;20040;-68
2023/06/18 00:29:47;;;;;;;6.15;3.70;;;22.90;53.20;;;;;;5089381;28;20031;-68
2023/06/18 00:32:14;;;;;;;7.38;4.03;;;22.90;53.10;;;;;;5095655;28;20599;-68
2023/06/18 00:34:41;;;;;;;5.03;3.78;;;23.00;53.00;;;;;;5087959;28;20076;-68
2023/06/18 00:37:09;;;;;;;4.15;3.70;;;23.00;52.90;;;;;;5082698;28;20021;-68
2023/06/18 00:39:37;;;;;;;8.23;5.78;;;23.00;52.70;;;;;;5079730;28;20028;-68
2023/06/18 00:42:05;;;;;;;6.63;4.43;;;23.00;52.70;;;;;;5086374;28;20054;-68
2023/06/18 00:44:31;;;;;;;5.82;4.13;;;23.00;52.60;;;;;;5084627;28;20012;-68
2023/06/18 00:46:59;;;;;;;5.70;3.70;;;23.00;52.40;;;;;;5077635;28;20105;-68
2023/06/18 00:49:26;;;;;;;4.47;3.88;;;23.00;52.30;;;;;;5102285;28;20782;-68
2023/06/18 00:51:52;;;;;;;4.47;3.65;;;23.00;52.40;;;;;;5094333;28;20049;-69
2023/06/18 00:54:18;;;;;;;4.10;3.40;;;23.00;52.40;;;;;;5083272;28;20029;-69
2023/06/18 00:56:51;;;;;;;5.45;4.18;;;22.90;52.40;;;;;;5070013;28;20466;-69
2023/06/18 00:59:22;;;;;;;4.85;3.67;;;23.00;53.00;;;;;;5080864;28;20021;-68
2023/06/18 01:01:55;;;;;;;3.95;3.47;;;22.90;52.40;;;;;;5085694;28;20031;-68
2023/06/18 01:04:25;;;;;;;4.47;3.50;;;22.90;52.50;;;;;;5095815;28;20051;-68
2023/06/18 01:06:51;;;;;;;4.85;3.80;;;22.90;52.40;;;;;;5086321;28;20099;-68
2023/06/18 01:09:21;;;;;;;4.15;3.45;;;22.90;52.50;;;;;;5084716;28;20051;-69
2023/06/18 01:11:54;;;;;;;3.97;3.50;;;22.80;52.40;;;;;;5086487;28;20073;-68
2023/06/18 01:14:25;;;;;;;4.70;3.30;;;22.90;52.30;;;;;;5087570;28;20036;-68
2023/06/18 01:16:53;;;;;;;6.30;3.83;;;22.90;52.20;;;;;;5086415;28;20029;-68
2023/06/18 01:19:38;;;;;;;4.78;3.65;;;22.90;52.30;;;;;;5078352;28;20085;-68
2023/06/18 01:22:15;;;;;;;4.55;3.45;;;22.90;52.40;;;;;;5087043;28;20032;-68
2023/06/18 01:24:48;;;;;;;5.20;3.40;;;22.80;52.60;;;;;;5084669;28;20477;-68
2023/06/18 01:27:16;;;;;;;6.63;3.90;;;22.80;52.80;;;;;;5101410;28;20072;-69
2023/06/18 01:29:42;;;;;;;4.70;3.47;;;22.70;52.90;;;;;;5089736;28;20120;-69
2023/06/18 01:32:08;;;;;;;4.10;3.42;;;22.60;52.90;;;;;;5093417;28;20478;-69
2023/06/18 01:34:38;;;;;;;4.07;3.28;;;22.70;52.90;;;;;;5105729;28;20024;-69
2023/06/18 01:37:33;;;;;;;4.85;3.65;;;22.70;53.00;;;;;;5091236;28;20028;-69
2023/06/18 01:40:07;;;;;;;5.70;3.85;;;22.60;53.10;;;;;;5095933;28;20032;-69
2023/06/18 01:42:39;;;;;;;5.25;3.70;;;22.50;53.40;;;;;;5084511;28;20018;-69
2023/06/18 01:45:15;;;;;;;5.00;3.80;;;22.50;53.50;;;;;;5087528;28;20039;-68
2023/06/18 01:47:44;;;;;;;6.07;4.50;;;22.40;53.80;;;;;;5084544;28;20636;-68
2023/06/18 01:50:12;;;;;;;5.72;3.97;;;22.40;54.00;;;;;;5098316;28;20048;-69
2023/06/18 01:52:42;;;;;;;5.88;4.57;;;22.30;54.20;;;;;;5092322;28;20030;-69
2023/06/18 01:55:10;;;;;;;4.90;3.80;;;22.20;54.50;;;;;;5094981;28;20130;-68
2023/06/18 01:57:36;;;;;;;5.10;3.53;;;22.20;54.30;;;;;;5095470;28;20031;-69
2023/06/18 02:00:04;;;;;;;7.22;3.53;;;22.20;54.40;;;;;;5091048;28;20166;-69
2023/06/18 02:02:30;;;;;;;3.88;3.42;;;22.20;54.50;;;;;;5100484;28;20064;-69
2023/06/18 02:04:55;;;;;;;4.72;3.60;;;22.20;54.50;;;;;;5095698;28;20551;-69
2023/06/18 02:07:21;;;;;;;7.45;4.22;;;22.20;54.50;;;;;;5087790;28;20055;-69
2023/06/18 02:09:46;;;;;;;6.22;4.07;;;22.20;54.80;;;;;;5075105;28;20055;-68
2023/06/18 02:12:12;;;;;;;5.80;4.43;;;22.10;54.80;;;;;;5095783;28;20032;-67
2023/06/18 02:14:38;;;;;;;6.43;4.65;;;22.10;55.00;;;;;;5105457;28;20019;-67
2023/06/18 02:17:04;;;;;;;7.38;4.32;;;22.10;55.20;;;;;;5090096;28;20550;-67
2023/06/18 02:19:29;;;;;;;6.13;4.32;;;22.00;55.20;;;;;;5090471;28;20028;-69
2023/06/18 02:21:55;;;;;;;5.80;4.07;;;22.00;55.40;;;;;;5101178;28;20028;-67
2023/06/18 02:24:20;;;;;;;6.75;4.18;;;22.00;55.40;;;;;;5091769;28;20036;-67
2023/06/18 02:26:46;;;;;;;5.20;4.13;;;22.00;55.60;;;;;;5081744;28;20028;-67
2023/06/18 02:29:11;;;;;;;6.45;4.57;;;21.90;55.50;;;;;;5092451;28;20533;-67
2023/06/18 02:31:37;;;;;;;5.03;3.90;;;21.90;55.70;;;;;;5092172;28;20054;-67
2023/06/18 02:34:02;;;;;;;6.05;4.05;;;21.90;55.80;;;;;;5103050;28;20488;-67
2023/06/18 02:36:28;;;;;;;6.28;4.43;;;21.90;56.50;;;;;;5078228;28;20025;-68
2023/06/18 02:38:55;;;;;;;6.43;4.60;;;21.80;55.90;;;;;;5087672;28;20102;-67
2023/06/18 02:41:20;;;;;;;6.45;4.40;;;21.70;56.40;;;;;;5085388;28;20557;-66
2023/06/18 02:43:49;;;;;;;8.15;5.55;;;21.70;56.60;;;;;;5100538;28;20094;-67
2023/06/18 02:46:15;;;;;;;6.15;4.75;;;21.60;56.80;;;;;;5082874;28;20025;-68
2023/06/18 02:48:40;;;;;;;7.47;4.90;;;21.60;57.10;;;;;;5097738;28;20024;-67
2023/06/18 02:51:06;;;;;;;8.90;6.80;;;21.60;57.40;;;;;;5083192;28;20024;-68
2023/06/18 02:53:31;;;;;;;8.75;5.80;;;21.50;58.00;;;;;;5097474;28;20024;-68
2023/06/18 02:55:57;;;;;;;6.20;4.72;;;21.50;57.90;;;;;;5081408;28;20036;-68
2023/06/18 02:58:27;;;;;;;5.35;4.45;;;21.40;57.90;;;;;;5094133;28;20027;-68
2023/06/18 03:00:57;;;;;;;6.53;4.55;;;21.40;57.70;;;;;;5093890;28;20016;-68
2023/06/18 03:03:23;;;;;;;6.50;4.80;;;21.40;57.80;;;;;;5083319;28;20021;-68
2023/06/18 03:05:49;;;;;;;5.93;4.70;;;21.50;57.70;;;;;;5074243;28;20104;-68
2023/06/18 03:08:15;;;;;;;6.50;5.00;;;21.50;57.70;;;;;;5092131;28;20036;-68
2023/06/18 03:10:43;;;;;;;8.35;5.30;;;21.40;57.80;;;;;;5086790;28;20376;-68
2023/06/18 03:13:09;;;;;;;7.30;5.57;;;21.40;58.20;;;;;;5094827;28;20394;-67
2023/06/18 03:15:34;;;;;;;7.03;5.50;;;21.40;58.50;;;;;;5077530;28;20048;-68
2023/06/18 03:18:00;;;;;;;7.75;5.45;;;21.30;58.70;;;;;;5088364;28;20372;-67
2023/06/18 03:20:27;;;;;;;8.30;5.95;;;21.20;59.10;;;;;;5097286;28;20036;-67
2023/06/18 03:22:53;;;;;;;6.82;4.90;;;21.20;58.90;;;;;;5094053;28;20020;-67
2023/06/18 03:25:20;;;;;;;6.53;5.13;;;21.20;58.90;;;;;;5097797;28;20027;-68
2023/06/18 03:27:50;;;;;;;7.38;4.78;;;21.30;59.00;;;;;;5096307;28;20485;-68
2023/06/18 03:30:16;;;;;;;5.70;4.68;;;21.20;58.90;;;;;;5081942;28;20687;-67
2023/06/18 03:32:42;;;;;;;7.13;5.18;;;21.30;58.90;;;;;;5095900;28;20053;-67
2023/06/18 03:35:08;;;;;;;6.65;5.18;;;21.20;59.00;;;;;;5080792;28;20024;-67
2023/06/18 03:37:35;;;;;;;6.20;4.80;;;21.30;59.00;;;;;;5092424;28;20034;-67
2023/06/18 03:40:03;;;;;;;5.97;4.60;;;21.30;59.10;;;;;;5089251;28;20025;-68
2023/06/18 03:42:29;;;;;;;7.03;5.40;;;21.30;58.80;;;;;;5100919;28;20542;-67
2023/06/18 03:44:55;;;;;;;7.72;5.95;;;21.30;59.10;;;;;;5106569;28;20090;-68
2023/06/18 03:47:20;;;;;;;6.25;5.18;;;21.30;59.30;;;;;;5086134;28;20058;-68
2023/06/18 03:49:46;;;;;;;6.45;5.18;;;21.20;59.40;;;;;;5088882;28;20024;-67
2023/06/18 03:52:12;;;;;;;8.07;6.10;;;21.20;59.40;;;;;;5083953;28;20482;-68
2023/06/18 03:54:38;;;;;;;7.03;5.88;;;21.20;59.70;;;;;;5082579;28;20522;-68
2023/06/18 03:57:04;;;;;;;9.52;5.95;;;21.20;59.70;;;;;;5096668;28;20028;-68
2023/06/18 03:59:30;;;;;;;8.23;6.10;;;21.20;59.80;;;;;;5090032;28;20035;-67
2023/06/18 04:01:56;;;;;;;7.47;6.68;;;21.20;59.90;;;;;;5085129;28;20036;-67
2023/06/18 04:04:21;;;;;;;7.07;5.78;;;21.20;60.00;;;;;;5085247;28;20020;-67
2023/06/18 04:06:47;;;;;;;7.95;6.30;;;21.20;60.00;;;;;;5083140;28;20414;-67
2023/06/18 04:09:12;;;;;;;7.53;5.40;;;21.20;60.00;;;;;;5070842;28;20028;-67
2023/06/18 04:11:38;;;;;;;8.88;6.25;;;21.20;60.00;;;;;;5090698;28;20028;-67
2023/06/18 04:14:04;;;;;;;8.02;6.28;;;21.20;60.10;;;;;;5096941;28;20478;-67
2023/06/18 04:16:30;;;;;;;7.50;5.72;;;21.20;60.20;;;;;;5087621;28;20028;-67
2023/06/18 04:18:56;;;;;;;8.15;6.45;;;21.20;60.10;;;;;;5070307;28;20398;-67
2023/06/18 04:21:21;;;;;;;7.07;5.85;;;21.20;60.20;;;;;;5089722;28;20020;-67
2023/06/18 04:23:47;;;;;;;7.70;6.50;;;21.20;60.20;;;;;;5091178;28;20095;-67
2023/06/18 04:26:12;;;;;;;9.18;6.68;;;21.20;60.40;;;;;;5091640;28;20472;-67
2023/06/18 04:28:38;;;;;;;8.13;6.90;;;21.20;60.40;;;;;;5073298;28;20513;-67
2023/06/18 04:31:03;;;;;;;8.23;6.18;;;21.30;60.60;;;;;;5072379;28;20647;-67
2023/06/18 04:33:29;;;;;;;8.50;6.28;;;21.30;60.20;;;;;;5096454;28;20028;-67
2023/06/18 04:35:55;;;;;;;6.63;5.82;;;21.40;60.20;;;;;;5095500;28;20054;-67
2023/06/18 04:38:21;;;;;;;6.68;5.68;;;21.40;60.10;;;;;;5095404;28;20106;-67
2023/06/18 04:40:48;;;;;;;9.60;6.80;;;21.50;60.10;;;;;;5089481;28;20077;-67
2023/06/18 04:43:13;;;;;;;8.07;6.30;;;21.50;60.10;;;;;;5090994;28;20024;-67
2023/06/18 04:45:39;;;;;;;8.60;7.05;;;21.60;60.00;;;;;;5096328;28;20107;-67
2023/06/18 04:48:05;;;;;;;8.32;6.68;;;21.60;60.00;;;;;;5096394;28;20028;-67
2023/06/18 04:50:30;;;;;;;8.75;6.93;;;21.70;59.90;;;;;;5102881;28;20022;-67
2023/06/18 04:52:56;;;;;;;8.57;6.57;;;21.70;60.00;;;;;;5097196;28;20111;-67
2023/06/18 04:55:22;;;;;;;8.63;6.93;;;21.70;60.00;;;;;;5087052;28;20054;-67
2023/06/18 04:57:48;;;;;;;9.50;6.43;;;21.90;59.70;;;;;;5096737;28;20021;-67
2023/06/18 05:00:14;;;;;;;8.27;6.63;;;21.90;60.20;;;;;;5105599;28;20028;-67
2023/06/18 05:02:40;;;;;;;6.82;5.70;;;22.00;59.50;;;;;;5098784;28;20019;-67
2023/06/18 05:05:06;;;;;;;8.88;6.80;;;22.00;59.20;;;;;;5109869;28;20024;-67
2023/06/18 05:07:31;;;;;;;7.10;5.82;;;22.10;59.00;;;;;;5101852;28;20016;-67
2023/06/18 05:09:57;;;;;;;9.18;6.70;;;22.20;58.80;;;;;;5078564;28;20021;-67
2023/06/18 05:12:22;;;;;;;8.38;6.55;;;22.40;58.50;;;;;;5101127;28;20103;-67
2023/06/18 05:14:48;;;;;;;8.50;6.93;;;22.50;58.30;;;;;;5081254;28;20020;-67
2023/06/18 05:17:14;;;;;;;8.20;6.40;;;22.40;58.20;;;;;;5100584;28;20031;-68
2023/06/18 05:19:39;;;;;;;7.75;5.60;;;22.50;58.10;;;;;;5094457;28;20024;-68
2023/06/18 05:22:05;;;;;;;7.22;5.75;;;22.50;58.10;;;;;;5090641;28;20032;-68
2023/06/18 05:24:31;;;;;;;9.70;5.93;;;22.40;58.10;;;;;;5089725;28;20020;-68
2023/06/18 05:26:56;;;;;;;9.52;6.75;;;22.30;58.20;;;;;;5088020;28;20035;-68
2023/06/18 05:29:22;;;;;;;8.07;6.07;;;22.40;58.40;;;;;;5093947;28;20028;-68
2023/06/18 05:31:47;;;;;;;8.75;7.22;;;22.30;58.30;;;;;;5088302;28;20078;-68
2023/06/18 05:34:13;;;;;;;8.68;7.00;;;22.30;58.40;;;;;;5098789;28;20023;-67
2023/06/18 05:36:39;;;;;;;8.35;6.88;;;22.30;58.50;;;;;;5094527;28;20038;-67
2023/06/18 05:39:04;;;;;;;9.18;7.03;;;22.30;58.60;;;;;;5099228;28;20035;-67
2023/06/18 05:41:30;;;;;;;9.05;6.88;;;22.40;58.50;;;;;;5086589;28;20029;-67
2023/06/18 05:43:55;;;;;;;8.00;6.22;;;22.60;58.30;;;;;;5099444;28;20355;-67
2023/06/18 05:46:21;;;;;;;9.60;7.25;;;22.80;57.80;;;;;;5093035;28;20140;-67
2023/06/18 05:48:47;;;;;;;7.60;6.50;;;23.00;58.10;;;;;;5104020;28;20044;-68
2023/06/18 05:51:12;;;;;;;9.63;6.90;;;23.10;57.00;;;;;;5100720;28;20103;-67
2023/06/18 05:53:38;;;;;;;8.63;6.00;;;23.20;56.80;;;;;;5103823;28;20024;-67
2023/06/18 05:56:03;;;;;;;7.97;6.55;;;23.20;56.50;;;;;;5091542;28;20078;-67
2023/06/18 05:58:29;;;;;;;8.70;6.57;;;23.30;56.40;;;;;;5083085;28;20448;-68
2023/06/18 06:00:55;;;;;;;8.85;6.70;;;23.30;56.40;;;;;;5091818;28;20031;-68
2023/06/18 06:03:20;;;;;;;8.63;7.40;;;23.40;56.20;;;;;;5100815;28;20477;-68
2023/06/18 06:05:46;;;;;;;9.25;7.22;;;23.50;56.10;;;;;;5097921;28;20051;-67
2023/06/18 06:08:12;;;;;;;9.23;7.47;;;23.70;56.10;;;;;;5089711;28;20035;-67
2023/06/18 06:10:37;;;;;;;9.13;6.97;;;23.80;55.80;;;;;;5081325;28;20024;-67
2023/06/18 06:13:03;;;;;;;7.35;6.22;;;24.00;55.40;;;;;;5100554;28;20024;-68
2023/06/18 06:15:29;;;;;;;8.57;7.20;;;24.20;55.00;;;;;;5082116;28;20445;-68
2023/06/18 06:17:55;;;;;;;8.43;7.03;;;24.30;54.60;;;;;;5080488;28;20020;-68
2023/06/18 06:20:21;;;;;;;10.05;7.75;;;24.30;54.50;;;;;;5085821;28;20500;-68
2023/06/18 06:22:46;;;;;;;9.63;8.32;;;24.30;54.40;;;;;;5083491;28;20540;-67
2023/06/18 06:25:12;;;;;;;11.63;7.15;;;24.40;54.30;;;;;;5092632;28;20035;-67
2023/06/18 06:27:38;;;;;;;8.32;6.68;;;24.60;54.20;;;;;;5086441;28;20032;-67
2023/06/18 06:30:06;;;;;;;9.05;6.72;;;24.80;53.90;;;;;;5081013;28;20120;-68
2023/06/18 06:32:33;;;;;;;6.68;5.97;;;25.00;53.60;;;;;;5090700;28;20409;-67
2023/06/18 06:34:59;;;;;;;9.60;7.22;;;25.20;53.20;;;;;;5084763;28;20016;-67
2023/06/18 06:37:26;;;;;;;9.77;6.93;;;25.30;52.70;;;;;;5089146;28;20020;-67
2023/06/18 06:39:52;;;;;;;9.55;7.03;;;25.50;52.60;;;;;;5087747;28;20028;-67
2023/06/18 06:42:17;;;;;;;8.68;7.13;;;25.60;52.80;;;;;;5099420;28;20019;-69
2023/06/18 06:44:43;;;;;;;9.68;7.35;;;25.70;51.80;;;;;;5087008;28;20028;-67
2023/06/18 06:47:08;;;;;;;8.50;7.10;;;26.00;51.60;;;;;;5092332;28;20486;-67
2023/06/18 06:49:34;;;;;;;9.15;7.10;;;26.20;51.20;;;;;;5085345;28;20037;-66
2023/06/18 06:51:59;;;;;;;9.88;7.55;;;26.30;50.20;;;;;;5086497;28;20068;-66
2023/06/18 06:54:25;;;;;;;10.43;7.97;;;26.20;49.60;;;;;;5090037;28;20028;-67
2023/06/18 06:56:50;;;;;;;9.88;8.30;;;26.30;49.50;;;;;;5094970;28;20028;-67
2023/06/18 06:59:16;;;;;;;10.02;7.72;;;26.30;48.30;;;;;;5087114;28;20044;-67
2023/06/18 07:01:43;;;;;;;12.55;8.35;;;26.40;48.40;;;;;;5086672;28;20211;-67
2023/06/18 07:04:09;;;;;;;9.18;7.45;;;26.30;48.20;;;;;;5095194;28;20070;-67
2023/06/18 07:06:38;;;;;;;9.02;6.90;;;26.40;48.40;;;;;;5091061;28;20030;-67
2023/06/18 07:09:04;;;;;;;8.73;7.00;;;26.40;48.10;;;;;;5089355;28;20486;-67
2023/06/18 07:11:30;;;;;;;9.68;6.90;;;26.50;48.00;;;;;;5085030;28;20586;-67
2023/06/18 07:13:55;;;;;;;8.38;6.63;;;26.50;47.30;;;;;;5099515;28;20036;-67
2023/06/18 07:16:21;;;;;;;9.13;7.20;;;26.50;47.30;;;;;;5081949;28;20028;-67
2023/06/18 07:18:46;;;;;;;9.45;7.00;;;26.60;47.30;;;;;;5088758;28;20094;-67
2023/06/18 07:21:12;;;;;;;7.20;5.82;;;26.60;47.20;;;;;;5083202;28;20024;-67
2023/06/18 07:23:37;;;;;;;8.32;7.00;;;26.80;47.00;;;;;;5093778;28;20011;-67
2023/06/18 07:26:03;;;;;;;8.95;6.68;;;26.80;46.40;;;;;;5073526;28;20103;-67
2023/06/18 07:28:29;;;;;;;9.20;6.85;;;26.90;46.10;;;;;;5079232;28;20025;-67
2023/06/18 07:30:54;;;;;;;8.77;7.20;;;27.10;45.50;;;;;;5079301;28;20436;-67
2023/06/18 07:33:20;;;;;;;8.52;6.97;;;27.10;44.60;;;;;;5089928;28;20442;-67
2023/06/18 07:35:46;;;;;;;8.25;6.75;;;27.00;44.00;;;;;;5083147;28;20024;-67
2023/06/18 07:38:11;;;;;;;9.95;7.43;;;27.10;44.60;;;;;;5083393;28;20380;-67
2023/06/18 07:40:38;;;;;;;9.57;6.75;;;27.00;44.50;;;;;;5086256;28;20031;-67
2023/06/18 07:43:04;;;;;;;8.48;6.32;;;26.90;44.90;;;;;;5096138;28;20043;-67
2023/06/18 07:45:30;;;;;;;6.90;5.93;;;26.90;44.40;;;;;;5086985;28;20427;-67
2023/06/18 07:47:55;;;;;;;7.07;5.68;;;26.90;44.00;;;;;;5071003;28;20028;-67
2023/06/18 07:50:21;;;;;;;9.82;6.63;;;26.90;43.90;;;;;;5075703;28;20028;-67
2023/06/18 07:52:47;;;;;;;6.63;5.03;;;27.00;43.50;;;;;;5089981;28;20157;-67
2023/06/18 07:55:12;;;;;;;6.45;5.30;;;27.10;43.50;;;;;;5086226;28;20551;-67
2023/06/18 07:57:38;;;;;;;8.73;5.47;;;27.30;43.40;;;;;;5088699;28;20514;-67
2023/06/18 08:00:05;;;;;;;6.18;5.22;;;27.40;43.20;;;;;;5099295;28;20107;-67
2023/06/18 08:02:30;;;;;;;6.43;5.75;;;27.50;43.10;;;;;;5091728;28;20095;-67
2023/06/18 08:04:56;;;;;;;6.85;5.90;;;27.50;42.60;;;;;;5085114;28;20442;-66
2023/06/18 08:07:21;;;;;;;7.85;5.88;;;27.40;42.50;;;;;;5082062;28;20028;-66
2023/06/18 08:09:47;;;;;;;7.25;5.80;;;27.40;42.60;;;;;;5088483;28;20032;-67
2023/06/18 08:12:13;;;;;;;6.05;5.22;;;27.40;42.70;;;;;;5085128;28;20156;-67
2023/06/18 08:14:38;;;;;;;5.63;4.60;;;27.30;42.90;;;;;;5089216;28;20028;-67
2023/06/18 08:17:04;;;;;;;8.02;5.60;;;27.40;43.20;;;;;;5087469;28;20379;-67
2023/06/18 08:19:30;;;;;;;6.57;5.63;;;27.40;43.30;;;;;;5084651;28;20382;-67
2023/06/18 08:21:55;;;;;;;6.55;5.38;;;27.50;43.80;;;;;;5085763;28;20028;-67
2023/06/18 08:24:21;;;;;;;7.95;6.20;;;27.50;44.10;;;;;;5091508;28;20039;-67
2023/06/18 08:26:47;;;;;;;7.28;6.22;;;27.40;44.10;;;;;;5085882;28;20099;-67
2023/06/18 08:29:12;;;;;;;6.70;5.70;;;27.40;44.00;;;;;;5085482;28;20054;-67
2023/06/18 08:31:42;;;;;;;6.15;5.40;;;27.30;43.70;;;;;;5085104;28;20410;-67
2023/06/18 08:34:07;;;;;;;6.47;5.78;;;27.30;43.90;;;;;;5086076;28;20089;-67
2023/06/18 08:36:33;;;;;;;6.30;5.40;;;27.40;43.80;;;;;;5086130;28;20028;-67
2023/06/18 08:38:59;;;;;;;6.07;5.20;;;27.50;43.70;;;;;;5084656;28;20027;-67
2023/06/18 08:41:26;;;;;;;8.90;5.75;;;27.60;43.50;;;;;;5081658;28;20026;-68
2023/06/18 08:43:52;;;;;;;8.18;6.13;;;27.80;43.00;;;;;;5086435;28;20024;-68
2023/06/18 08:46:17;;;;;;;7.35;5.53;;;27.70;42.20;;;;;;5085789;28;20073;-67
2023/06/18 08:49:00;;;;;;;6.28;5.25;;;27.60;42.20;;;;;;5084856;28;20024;-67
2023/06/18 08:51:26;;;;;;;6.63;5.07;;;27.80;42.30;;;;;;5085327;28;20035;-67
2023/06/18 08:54:12;;;;;;;6.93;4.32;;;28.00;42.20;;;;;;5089494;28;20043;-67
2023/06/18 08:56:54;;;;;;;6.30;5.18;;;28.10;41.40;;;;;;5084502;28;20028;-67
2023/06/18 08:59:21;;;;;;;6.00;5.18;;;28.20;41.20;;;;;;5089843;28;20059;-66
2023/06/18 09:01:48;;;;;;;6.35;5.68;;;28.30;41.00;;;;;;5082577;28;20024;-66
2023/06/18 09:04:14;;;;;;;6.47;4.80;;;28.40;40.40;;;;;;5085354;28;20024;-66
2023/06/18 09:06:41;;;;;;;7.85;6.40;;;28.50;40.30;;;;;;5085262;28;20024;-66
2023/06/18 09:09:07;;;;;;;7.88;5.25;;;28.40;39.70;;;;;;5088701;28;20032;-66
2023/06/18 09:11:33;;;;;;;8.85;6.50;;;28.50;40.10;;;;;;5085496;28;20043;-66
2023/06/18 09:13:59;;;;;;;7.68;5.80;;;28.50;38.70;;;;;;5084445;28;20028;-67
2023/06/18 09:16:25;;;;;;;6.50;5.40;;;28.50;39.30;;;;;;5080293;28;20032;-67
2023/06/18 09:18:52;;;;;;;5.72;5.13;;;28.70;39.70;;;;;;5080438;28;20082;-66
2023/06/18 09:21:47;;;;;;;8.68;6.10;;;29.00;39.60;;;;;;5083616;28;20021;-67
2023/06/18 09:24:19;;;;;;;6.10;5.45;;;29.10;39.20;;;;;;5070906;28;20044;-67
2023/06/18 09:26:45;;;;;;;7.18;6.05;;;29.30;39.00;;;;;;5085982;28;20075;-67
2023/06/18 09:29:11;;;;;;;6.90;5.72;;;29.30;38.50;;;;;;5085473;28;20030;-67
2023/06/18 09:31:44;;;;;;;5.55;4.82;;;29.40;38.90;;;;;;5084733;28;20103;-67
2023/06/18 09:34:18;;;;;;;8.10;6.72;;;29.60;39.00;;;;;;5087089;28;20052;-67
2023/06/18 09:36:45;;;;;;;7.57;6.10;;;29.80;38.30;;;;;;5086101;28;20056;-67
2023/06/18 09:39:21;;;;;;;7.28;6.10;;;29.90;38.20;;;;;;5092732;28;20186;-67
2023/06/18 09:41:49;;;;;;;7.18;6.40;;;29.90;37.40;;;;;;5088363;28;20115;-68
2023/06/18 09:44:15;;;;;;;6.60;5.10;;;29.70;36.60;;;;;;5095430;28;20016;-67
2023/06/18 09:46:48;;;;;;;6.80;5.30;;;29.70;37.30;;;;;;5086002;28;20034;-67
2023/06/18 09:49:17;;;;;;;5.80;5.20;;;29.70;36.90;;;;;;5088497;28;20032;-67
2023/06/18 09:51:43;;;;;;;6.55;5.88;;;29.80;36.70;;;;;;5089787;28;20028;-67
2023/06/18 09:54:09;;;;;;;6.47;5.00;;;29.80;36.00;;;;;;5091139;28;20036;-67
2023/06/18 09:56:37;;;;;;;5.43;4.57;;;29.80;36.10;;;;;;5089463;28;20028;-68
2023/06/18 09:59:03;;;;;;;8.00;6.20;;;29.90;36.00;;;;;;5092634;28;20063;-67
2023/06/18 10:01:43;;;;;;;5.32;4.70;;;29.90;35.50;;;;;;5084734;28;20027;-67
2023/06/18 10:04:08;;;;;;;5.35;4.15;;;29.90;35.80;;;;;;5090110;28;20024;-67
2023/06/18 10:06:35;;;;;;;5.65;4.80;;;30.10;36.00;;;;;;5093491;28;20023;-67
2023/06/18 10:09:01;;;;;;;5.72;4.72;;;30.20;35.60;;;;;;5090315;28;20032;-68
2023/06/18 10:11:30;;;;;;;9.63;6.13;;;30.20;35.90;;;;;;5091936;28;20130;-68
2023/06/18 10:14:00;;;;;;;5.32;4.82;;;30.30;35.60;;;;;;5091402;28;20060;-68
2023/06/18 10:16:28;;;;;;;6.37;4.70;;;30.20;35.70;;;;;;5089618;28;20035;-68
2023/06/18 10:19:11;;;;;;;5.53;4.50;;;30.00;35.10;;;;;;5102189;28;20279;-68
2023/06/18 10:21:42;;;;;;;6.28;4.60;;;30.00;35.30;;;;;;5087724;28;20032;-68
2023/06/18 10:24:34;;;;;;;7.22;4.65;;;30.20;35.50;;;;;;5082822;28;20051;-68
2023/06/18 10:27:00;;;;;;;;;;;30.40;35.30;;;;;;5075097;28;20585;-69
2023/06/18 10:29:26;;;;;;;6.18;5.30;;;30.30;35.50;;;;;;5086383;28;19966;-68
2023/06/18 10:31:53;;;;;;;7.05;4.65;;;30.30;35.50;;;;;;5085634;28;20071;-68
2023/06/18 10:34:19;;;;;;;6.63;4.28;;;30.10;35.00;;;;;;5084103;28;20036;-68
2023/06/18 10:36:45;;;;;;;5.82;4.22;;;30.00;35.30;;;;;;5079912;28;20132;-68
2023/06/18 10:39:12;;;;;;;5.47;4.45;;;30.10;35.30;;;;;;5084443;28;20028;-69
2023/06/18 10:41:39;;;;;;;6.18;4.22;;;30.10;35.20;;;;;;5084521;28;20020;-68
2023/06/18 10:44:04;;;;;;;4.38;3.80;;;30.10;35.30;;;;;;5092488;28;20016;-69
2023/06/18 10:46:33;;;;;;;6.22;4.20;;;30.20;35.60;;;;;;5089853;28;20085;-69
2023/06/18 10:49:16;;;;;;;4.95;3.95;;;30.30;35.50;;;;;;5089915;28;20121;-68
2023/06/18 10:51:45;;;;;;;4.78;3.90;;;30.30;35.50;;;;;;5088732;28;20023;-68
2023/06/18 10:54:30;;;;;;;5.90;4.45;;;30.30;35.20;;;;;;5088563;28;20024;-68
2023/06/18 10:56:57;;;;;;;4.80;3.92;;;30.20;35.10;;;;;;5089155;28;20029;-68
2023/06/18 10:59:42;;;;;;;4.97;4.10;;;30.30;35.30;;;;;;5094650;28;20533;-68
2023/06/18 11:02:07;;;;;;;5.10;4.47;;;30.20;35.20;;;;;;5085954;28;20032;-68
2023/06/18 11:04:34;;;;;;;5.88;4.28;;;30.10;35.20;;;;;;5089130;28;20050;-69
2023/06/18 11:07:27;;;;;;;7.43;4.47;;;30.00;35.40;;;;;;5088440;28;20028;-68
2023/06/18 11:09:57;;;;;;;6.38;4.45;;;29.80;35.80;;;;;;5091007;28;20390;-69
2023/06/18 11:12:25;;;;;;;6.22;5.40;;;29.70;36.10;;;;;;5086797;28;20390;-68
2023/06/18 11:15:14;;;;;;;5.60;4.93;;;29.50;36.00;;;;;;5089913;28;20024;-68
2023/06/18 11:17:46;;;;;;;7.50;5.35;;;29.20;36.20;;;;;;5084522;28;20028;-68
2023/06/18 11:20:12;;;;;;;5.07;4.57;;;29.10;36.40;;;;;;5085252;28;20082;-68
2023/06/18 11:22:40;;;;;;;5.72;3.90;;;29.20;36.70;;;;;;5084993;28;20028;-69
2023/06/18 11:25:08;;;;;;;6.47;5.35;;;29.30;36.90;;;;;;5084441;28;20016;-68
2023/06/18 11:27:34;;;;;;;5.55;4.32;;;29.30;36.60;;;;;;5084118;28;20051;-68
2023/06/18 11:30:00;;;;;;;7.47;4.70;;;29.30;36.80;;;;;;5084305;28;20032;-69
2023/06/18 11:32:27;;;;;;;5.28;4.18;;;29.30;37.00;;;;;;5081491;28;20112;-68
2023/06/18 11:34:56;;;;;;;4.80;4.30;;;29.30;37.20;;;;;;5083943;28;20592;-68
2023/06/18 11:37:25;;;;;;;5.47;4.65;;;29.30;37.30;;;;;;5085123;28;20036;-68
2023/06/18 11:39:51;;;;;;;6.95;4.50;;;29.30;37.40;;;;;;5084250;28;20032;-69
2023/06/18 11:42:21;;;;;;;5.18;4.10;;;29.20;38.60;;;;;;5087060;28;20039;-68
2023/06/18 11:44:50;;;;;;;4.95;4.25;;;29.20;38.70;;;;;;5086776;28;20101;-68
2023/06/18 11:47:16;;;;;;;5.05;4.30;;;29.10;38.70;;;;;;5085016;28;20016;-68
2023/06/18 11:49:46;;;;;;;5.40;4.63;;;29.10;38.60;;;;;;5086986;28;20032;-68
2023/06/18 11:52:21;;;;;;;5.80;4.13;;;29.00;38.80;;;;;;5084886;28;20028;-68
2023/06/18 11:54:48;;;;;;;6.32;4.15;;;29.00;39.10;;;;;;5084945;28;20031;-68
2023/06/18 11:57:16;;;;;;;6.65;4.97;;;29.10;39.10;;;;;;5084359;28;20016;-68
2023/06/18 11:59:43;;;;;;;7.00;4.13;;;29.10;39.10;;;;;;5084090;28;20066;-68
2023/06/18 12:02:13;;;;;;;6.32;4.80;;;29.00;39.40;;;;;;5080846;28;20099;-68
2023/06/18 12:04:43;;;;;;;5.72;4.32;;;28.90;39.60;;;;;;5085723;28;20034;-68
2023/06/18 12:07:10;;;;;;;6.03;4.17;;;28.90;39.90;;;;;;5088590;28;20023;-68
2023/06/18 12:09:36;;;;;;;4.38;3.65;;;28.90;40.10;;;;;;5082758;28;20109;-68
2023/06/18 12:12:22;;;;;;;6.60;4.50;;;29.00;40.20;;;;;;5087958;28;20063;-68
2023/06/18 12:14:57;;;;;;;5.28;4.55;;;29.00;40.20;;;;;;5088205;28;20039;-68
2023/06/18 12:17:51;;;;;;;6.55;4.80;;;28.90;40.40;;;;;;5087623;28;20714;-68
2023/06/18 12:20:24;;;;;;;6.85;5.68;;;28.80;40.80;;;;;;5087366;28;20024;-68
2023/06/18 12:22:50;;;;;;;6.70;5.68;;;28.80;41.00;;;;;;5087361;28;20030;-68
2023/06/18 12:25:17;;;;;;;6.45;5.60;;;28.80;41.00;;;;;;5085394;28;20024;-68
2023/06/18 12:27:43;;;;;;;7.45;5.80;;;28.90;41.00;;;;;;5081201;28;20024;-68
2023/06/18 12:30:11;;;;;;;6.57;4.90;;;28.80;41.10;;;;;;5084525;28;20111;-68
2023/06/18 12:32:38;;;;;;;5.93;5.18;;;28.80;41.10;;;;;;5084172;28;20032;-68
2023/06/18 12:35:14;;;;;;;6.40;5.38;;;28.90;41.00;;;;;;5085564;28;20024;-68
2023/06/18 12:37:43;;;;;;;6.15;5.50;;;28.90;41.10;;;;;;5084062;28;20180;-68
2023/06/18 12:40:23;;;;;;;6.68;5.90;;;28.70;40.90;;;;;;5083947;28;20032;-68
2023/06/18 12:42:49;;;;;;;6.47;5.43;;;28.70;40.90;;;;;;5085262;28;20071;-68
2023/06/18 12:45:21;;;;;;;6.30;5.13;;;28.70;41.00;;;;;;5088081;28;20111;-68
2023/06/18 12:47:47;;;;;;;9.00;6.40;;;28.80;40.90;;;;;;5085699;28;20074;-68
2023/06/18 12:50:22;;;;;;;9.77;7.07;;;28.80;41.50;;;;;;5086573;28;20494;-68